sensor_id;sensor_type;location;lat;lon;timestamp;noise_LAeq;noise_LA_min;noise_LA_max;noise_LA01;noise_LA95
77361;Laerm;66427;51.798;10.954;2023-11-21T00:01:54;29.18;27.31;32.68;;
77361;Laerm;66427;51.798;10.954;2023-11-21T00:04:19;29.39;27.29;36.75;;
77361;Laerm;66427;51.798;10.954;2023-11-21T00:06:44;29.70;27.55;33.76;;
77361;Laerm;66427;51.798;10.954;2023-11-21T00:09:12;29.65;27.58;34.94;;
77361;Laerm;66427;51.798;10.954;2023-11-21T00:11:38;29.39;27.44;34.46;;
77361;Laerm;66427;51.798;10.954;2023-11-21T00:14:03;29.09;27.30;34.37;;
77361;Laerm;66427;51.798;10.954;2023-11-21T00:16:29;28.60;27.09;31.86;;
77361;Laerm;66427;51.798;10.954;2023-11-21T00:18:54;29.04;27.17;32.38;;
77361;Laerm;66427;51.798;10.954;2023-11-21T00:21:20;28.83;27.20;33.03;;
77361;Laerm;66427;51.798;10.954;2023-11-21T00:23:45;29.44;27.23;34.40;;
77361;Laerm;66427;51.798;10.954;2023-11-21T00:26:11;29.19;27.35;39.42;;
77361;Laerm;66427;51.798;10.954;2023-11-21T00:28:36;29.05;27.08;34.70;;
77361;Laerm;66427;51.798;10.954;2023-11-21T00:31:01;29.19;27.68;31.77;;
77361;Laerm;66427;51.798;10.954;2023-11-21T00:33:27;29.17;27.31;32.96;;
77361;Laerm;66427;51.798;10.954;2023-11-21T00:35:52;30.48;27.15;41.64;;
77361;Laerm;66427;51.798;10.954;2023-11-21T00:38:18;30.14;27.66;37.60;;
77361;Laerm;66427;51.798;10.954;2023-11-21T00:40:45;28.70;27.24;31.82;;
77361;Laerm;66427;51.798;10.954;2023-11-21T00:43:10;28.51;27.12;32.64;;
77361;Laerm;66427;51.798;10.954;2023-11-21T00:45:36;28.70;27.27;32.46;;
77361;Laerm;66427;51.798;10.954;2023-11-21T00:48:02;31.58;27.06;42.07;;
77361;Laerm;66427;51.798;10.954;2023-11-21T00:50:27;28.73;26.90;35.16;;
77361;Laerm;66427;51.798;10.954;2023-11-21T00:52:53;30.38;27.61;37.76;;
77361;Laerm;66427;51.798;10.954;2023-11-21T00:55:18;29.29;27.31;35.66;;
77361;Laerm;66427;51.798;10.954;2023-11-21T00:57:43;30.01;27.30;41.13;;
77361;Laerm;66427;51.798;10.954;2023-11-21T01:00:09;29.15;27.24;36.67;;
77361;Laerm;66427;51.798;10.954;2023-11-21T01:02:39;29.39;27.48;38.16;;
77361;Laerm;66427;51.798;10.954;2023-11-21T01:05:04;29.16;27.45;34.74;;
77361;Laerm;66427;51.798;10.954;2023-11-21T01:07:32;30.74;27.61;40.83;;
77361;Laerm;66427;51.798;10.954;2023-11-21T01:09:58;29.15;27.40;39.19;;
77361;Laerm;66427;51.798;10.954;2023-11-21T01:12:23;29.57;27.89;40.76;;
77361;Laerm;66427;51.798;10.954;2023-11-21T01:14:50;29.21;27.49;33.11;;
77361;Laerm;66427;51.798;10.954;2023-11-21T01:17:16;35.21;27.96;46.02;;
77361;Laerm;66427;51.798;10.954;2023-11-21T01:19:42;28.89;27.31;32.42;;
77361;Laerm;66427;51.798;10.954;2023-11-21T01:22:07;28.67;27.11;32.12;;
77361;Laerm;66427;51.798;10.954;2023-11-21T01:24:33;29.13;27.33;34.49;;
77361;Laerm;66427;51.798;10.954;2023-11-21T01:26:59;31.58;27.92;38.32;;
77361;Laerm;66427;51.798;10.954;2023-11-21T01:29:24;28.31;27.09;33.02;;
77361;Laerm;66427;51.798;10.954;2023-11-21T01:31:50;30.02;27.57;37.08;;
77361;Laerm;66427;51.798;10.954;2023-11-21T01:34:15;29.17;27.61;31.73;;
77361;Laerm;66427;51.798;10.954;2023-11-21T01:36:40;29.30;27.40;32.07;;
77361;Laerm;66427;51.798;10.954;2023-11-21T01:39:06;28.53;26.93;32.74;;
77361;Laerm;66427;51.798;10.954;2023-11-21T01:41:34;29.47;27.43;34.04;;
77361;Laerm;66427;51.798;10.954;2023-11-21T01:44:00;29.80;27.89;33.34;;
77361;Laerm;66427;51.798;10.954;2023-11-21T01:46:25;29.37;27.07;32.97;;
77361;Laerm;66427;51.798;10.954;2023-11-21T01:48:51;28.81;26.87;37.58;;
77361;Laerm;66427;51.798;10.954;2023-11-21T01:51:18;28.88;27.34;34.03;;
77361;Laerm;66427;51.798;10.954;2023-11-21T01:53:44;30.13;27.43;51.55;;
77361;Laerm;66427;51.798;10.954;2023-11-21T01:56:11;29.00;27.29;38.57;;
77361;Laerm;66427;51.798;10.954;2023-11-21T01:58:37;30.67;27.29;46.04;;
77361;Laerm;66427;51.798;10.954;2023-11-21T02:01:03;28.83;27.27;32.71;;
77361;Laerm;66427;51.798;10.954;2023-11-21T02:03:29;28.99;27.03;40.22;;
77361;Laerm;66427;51.798;10.954;2023-11-21T02:05:54;29.31;27.10;44.27;;
77361;Laerm;66427;51.798;10.954;2023-11-21T02:08:19;28.21;26.88;43.60;;
77361;Laerm;66427;51.798;10.954;2023-11-21T02:10:45;28.58;27.08;30.70;;
77361;Laerm;66427;51.798;10.954;2023-11-21T02:13:11;28.26;27.05;37.59;;
77361;Laerm;66427;51.798;10.954;2023-11-21T02:15:36;29.07;27.25;39.90;;
77361;Laerm;66427;51.798;10.954;2023-11-21T02:18:03;28.64;27.07;34.84;;
77361;Laerm;66427;51.798;10.954;2023-11-21T02:20:31;30.09;27.27;36.07;;
77361;Laerm;66427;51.798;10.954;2023-11-21T02:22:57;28.63;26.94;34.83;;
77361;Laerm;66427;51.798;10.954;2023-11-21T02:25:26;28.30;26.90;31.49;;
77361;Laerm;66427;51.798;10.954;2023-11-21T02:27:53;29.18;27.59;31.39;;
77361;Laerm;66427;51.798;10.954;2023-11-21T02:30:20;30.27;27.67;37.97;;
77361;Laerm;66427;51.798;10.954;2023-11-21T02:32:47;28.79;27.17;31.74;;
77361;Laerm;66427;51.798;10.954;2023-11-21T02:35:13;28.54;27.06;30.50;;
77361;Laerm;66427;51.798;10.954;2023-11-21T02:37:38;29.47;27.08;37.79;;
77361;Laerm;66427;51.798;10.954;2023-11-21T02:40:04;29.25;27.23;31.21;;
77361;Laerm;66427;51.798;10.954;2023-11-21T02:42:31;31.59;27.79;39.65;;
77361;Laerm;66427;51.798;10.954;2023-11-21T02:44:57;38.75;33.77;45.69;;
77361;Laerm;66427;51.798;10.954;2023-11-21T02:47:22;34.70;28.69;44.21;;
77361;Laerm;66427;51.798;10.954;2023-11-21T02:49:48;29.39;27.63;42.15;;
77361;Laerm;66427;51.798;10.954;2023-11-21T02:52:14;30.68;28.45;36.26;;
77361;Laerm;66427;51.798;10.954;2023-11-21T02:54:39;31.51;28.77;34.99;;
77361;Laerm;66427;51.798;10.954;2023-11-21T02:57:04;34.35;30.94;44.99;;
77361;Laerm;66427;51.798;10.954;2023-11-21T02:59:31;33.35;29.89;47.21;;
77361;Laerm;66427;51.798;10.954;2023-11-21T03:01:56;37.72;31.93;48.54;;
77361;Laerm;66427;51.798;10.954;2023-11-21T03:04:22;34.85;32.12;45.26;;
77361;Laerm;66427;51.798;10.954;2023-11-21T03:06:47;36.45;31.67;53.22;;
77361;Laerm;66427;51.798;10.954;2023-11-21T03:09:13;40.17;31.72;57.37;;
77361;Laerm;66427;51.798;10.954;2023-11-21T03:11:38;40.69;31.66;56.65;;
77361;Laerm;66427;51.798;10.954;2023-11-21T03:14:04;39.72;31.96;57.43;;
77361;Laerm;66427;51.798;10.954;2023-11-21T03:16:31;39.46;32.45;56.09;;
77361;Laerm;66427;51.798;10.954;2023-11-21T03:18:56;38.42;30.42;57.22;;
77361;Laerm;66427;51.798;10.954;2023-11-21T03:21:22;39.32;30.52;57.51;;
77361;Laerm;66427;51.798;10.954;2023-11-21T03:23:47;39.73;31.63;56.89;;
77361;Laerm;66427;51.798;10.954;2023-11-21T03:26:12;36.58;31.93;55.51;;
77361;Laerm;66427;51.798;10.954;2023-11-21T03:28:38;38.11;32.55;46.90;;
77361;Laerm;66427;51.798;10.954;2023-11-21T03:31:03;41.25;33.53;50.78;;
77361;Laerm;66427;51.798;10.954;2023-11-21T03:33:29;34.99;31.86;47.48;;
77361;Laerm;66427;51.798;10.954;2023-11-21T03:35:54;34.45;31.63;42.81;;
77361;Laerm;66427;51.798;10.954;2023-11-21T03:38:20;35.45;31.78;56.38;;
77361;Laerm;66427;51.798;10.954;2023-11-21T03:40:45;43.03;31.15;57.85;;
77361;Laerm;66427;51.798;10.954;2023-11-21T03:43:11;34.33;31.89;38.59;;
77361;Laerm;66427;51.798;10.954;2023-11-21T03:45:36;34.18;31.51;40.96;;
77361;Laerm;66427;51.798;10.954;2023-11-21T03:48:01;35.61;32.54;49.13;;
77361;Laerm;66427;51.798;10.954;2023-11-21T03:50:30;36.08;31.18;54.38;;
77361;Laerm;66427;51.798;10.954;2023-11-21T03:52:56;38.03;31.79;53.25;;
77361;Laerm;66427;51.798;10.954;2023-11-21T03:55:21;45.49;32.16;69.97;;
77361;Laerm;66427;51.798;10.954;2023-11-21T03:57:48;45.51;32.83;61.36;;
77361;Laerm;66427;51.798;10.954;2023-11-21T04:00:14;39.90;33.06;54.98;;
77361;Laerm;66427;51.798;10.954;2023-11-21T04:02:39;35.26;31.36;59.59;;
77361;Laerm;66427;51.798;10.954;2023-11-21T04:05:05;40.39;32.59;53.19;;
77361;Laerm;66427;51.798;10.954;2023-11-21T04:07:32;36.19;32.23;54.32;;
77361;Laerm;66427;51.798;10.954;2023-11-21T04:09:57;47.64;33.82;69.14;;
77361;Laerm;66427;51.798;10.954;2023-11-21T04:12:23;39.89;31.87;51.75;;
77361;Laerm;66427;51.798;10.954;2023-11-21T04:14:48;36.48;32.23;47.28;;
77361;Laerm;66427;51.798;10.954;2023-11-21T04:17:13;40.12;33.57;58.25;;
77361;Laerm;66427;51.798;10.954;2023-11-21T04:19:39;40.57;34.89;54.85;;
77361;Laerm;66427;51.798;10.954;2023-11-21T04:22:04;38.57;34.50;53.08;;
77361;Laerm;66427;51.798;10.954;2023-11-21T04:24:29;38.59;34.72;57.26;;
77361;Laerm;66427;51.798;10.954;2023-11-21T04:26:55;53.89;35.63;67.17;;
77361;Laerm;66427;51.798;10.954;2023-11-21T04:29:20;47.03;34.63;64.01;;
77361;Laerm;66427;51.798;10.954;2023-11-21T04:31:46;38.23;33.30;47.82;;
77361;Laerm;66427;51.798;10.954;2023-11-21T04:34:13;40.40;33.79;53.55;;
77361;Laerm;66427;51.798;10.954;2023-11-21T04:36:38;39.63;35.08;50.63;;
77361;Laerm;66427;51.798;10.954;2023-11-21T04:39:04;51.88;35.53;64.53;;
77361;Laerm;66427;51.798;10.954;2023-11-21T04:41:29;40.68;36.07;56.99;;
77361;Laerm;66427;51.798;10.954;2023-11-21T04:43:56;43.40;34.81;55.98;;
77361;Laerm;66427;51.798;10.954;2023-11-21T04:46:22;41.33;35.33;55.36;;
77361;Laerm;66427;51.798;10.954;2023-11-21T04:48:47;45.70;38.13;63.27;;
77361;Laerm;66427;51.798;10.954;2023-11-21T04:51:12;54.71;35.69;70.02;;
77361;Laerm;66427;51.798;10.954;2023-11-21T04:53:38;53.95;36.53;67.41;;
77361;Laerm;66427;51.798;10.954;2023-11-21T04:56:04;52.01;38.55;66.32;;
77361;Laerm;66427;51.798;10.954;2023-11-21T04:58:30;52.86;37.48;65.31;;
77361;Laerm;66427;51.798;10.954;2023-11-21T05:00:55;41.82;37.43;47.71;;
77361;Laerm;66427;51.798;10.954;2023-11-21T05:03:21;54.31;39.27;71.21;;
77361;Laerm;66427;51.798;10.954;2023-11-21T05:05:48;42.18;36.61;63.26;;
77361;Laerm;66427;51.798;10.954;2023-11-21T05:08:14;44.07;36.02;61.09;;
77361;Laerm;66427;51.798;10.954;2023-11-21T05:10:39;51.96;36.91;68.71;;
77361;Laerm;66427;51.798;10.954;2023-11-21T05:13:05;43.33;37.73;62.01;;
77361;Laerm;66427;51.798;10.954;2023-11-21T05:15:35;44.32;38.72;62.89;;
77361;Laerm;66427;51.798;10.954;2023-11-21T05:18:00;57.67;38.87;73.19;;
77361;Laerm;66427;51.798;10.954;2023-11-21T05:20:25;55.68;39.87;72.87;;
77361;Laerm;66427;51.798;10.954;2023-11-21T05:22:51;43.57;38.75;50.82;;
77361;Laerm;66427;51.798;10.954;2023-11-21T05:25:16;42.53;38.53;52.65;;
77361;Laerm;66427;51.798;10.954;2023-11-21T05:27:47;54.79;39.20;72.08;;
77361;Laerm;66427;51.798;10.954;2023-11-21T05:30:13;57.44;42.05;70.64;;
77361;Laerm;66427;51.798;10.954;2023-11-21T05:32:39;60.19;40.57;74.82;;
77361;Laerm;66427;51.798;10.954;2023-11-21T05:35:05;57.54;40.79;73.49;;
77361;Laerm;66427;51.798;10.954;2023-11-21T05:37:37;57.02;40.32;70.93;;
77361;Laerm;66427;51.798;10.954;2023-11-21T05:40:04;49.08;37.34;61.64;;
77361;Laerm;66427;51.798;10.954;2023-11-21T05:42:31;54.66;40.66;67.50;;
77361;Laerm;66427;51.798;10.954;2023-11-21T05:44:57;59.36;40.33;73.96;;
77361;Laerm;66427;51.798;10.954;2023-11-21T05:47:24;54.43;41.27;72.57;;
77361;Laerm;66427;51.798;10.954;2023-11-21T05:49:51;55.55;41.81;66.59;;
77361;Laerm;66427;51.798;10.954;2023-11-21T05:52:17;59.55;41.50;74.63;;
77361;Laerm;66427;51.798;10.954;2023-11-21T05:54:42;56.51;39.39;71.73;;
77361;Laerm;66427;51.798;10.954;2023-11-21T05:57:08;61.68;39.50;72.76;;
77361;Laerm;66427;51.798;10.954;2023-11-21T05:59:34;47.38;39.94;66.06;;
77361;Laerm;66427;51.798;10.954;2023-11-21T06:01:59;54.26;38.96;70.52;;
77361;Laerm;66427;51.798;10.954;2023-11-21T06:04:25;46.36;40.19;63.49;;
77361;Laerm;66427;51.798;10.954;2023-11-21T06:06:51;46.22;38.44;62.21;;
77361;Laerm;66427;51.798;10.954;2023-11-21T06:09:17;58.93;42.75;70.05;;
77361;Laerm;66427;51.798;10.954;2023-11-21T06:11:42;59.50;42.64;73.14;;
77361;Laerm;66427;51.798;10.954;2023-11-21T06:14:08;59.05;42.86;72.26;;
77361;Laerm;66427;51.798;10.954;2023-11-21T06:16:34;54.34;41.49;68.18;;
77361;Laerm;66427;51.798;10.954;2023-11-21T06:19:00;54.97;42.22;71.10;;
77361;Laerm;66427;51.798;10.954;2023-11-21T06:21:26;59.68;40.97;73.19;;
77361;Laerm;66427;51.798;10.954;2023-11-21T06:23:51;59.77;42.51;70.89;;
77361;Laerm;66427;51.798;10.954;2023-11-21T06:26:18;61.79;44.38;74.40;;
77361;Laerm;66427;51.798;10.954;2023-11-21T06:28:44;58.44;44.24;69.62;;
77361;Laerm;66427;51.798;10.954;2023-11-21T06:31:09;62.07;45.78;72.69;;
77361;Laerm;66427;51.798;10.954;2023-11-21T06:33:35;61.55;41.10;77.00;;
77361;Laerm;66427;51.798;10.954;2023-11-21T06:36:01;63.07;45.17;77.70;;
77361;Laerm;66427;51.798;10.954;2023-11-21T06:38:27;58.12;40.87;71.87;;
77361;Laerm;66427;51.798;10.954;2023-11-21T06:40:55;59.54;39.77;70.91;;
77361;Laerm;66427;51.798;10.954;2023-11-21T06:43:20;54.95;39.43;70.29;;
77361;Laerm;66427;51.798;10.954;2023-11-21T06:45:47;46.05;40.12;62.74;;
77361;Laerm;66427;51.798;10.954;2023-11-21T06:48:13;62.52;39.93;78.30;;
77361;Laerm;66427;51.798;10.954;2023-11-21T06:50:38;59.18;40.32;73.65;;
77361;Laerm;66427;51.798;10.954;2023-11-21T06:53:03;54.77;38.63;70.15;;
77361;Laerm;66427;51.798;10.954;2023-11-21T06:55:32;57.42;38.15;72.02;;
77361;Laerm;66427;51.798;10.954;2023-11-21T06:57:57;61.85;37.80;77.27;;
77361;Laerm;66427;51.798;10.954;2023-11-21T07:00:23;60.57;37.72;79.94;;
77361;Laerm;66427;51.798;10.954;2023-11-21T07:02:49;59.26;37.45;74.26;;
77361;Laerm;66427;51.798;10.954;2023-11-21T07:05:14;57.38;38.84;72.93;;
77361;Laerm;66427;51.798;10.954;2023-11-21T07:07:40;57.17;39.31;70.45;;
77361;Laerm;66427;51.798;10.954;2023-11-21T07:10:06;56.94;39.39;72.33;;
77361;Laerm;66427;51.798;10.954;2023-11-21T07:12:33;47.86;39.13;60.27;;
77361;Laerm;66427;51.798;10.954;2023-11-21T07:14:59;59.01;40.29;71.87;;
77361;Laerm;66427;51.798;10.954;2023-11-21T07:17:25;52.80;38.80;69.45;;
77361;Laerm;66427;51.798;10.954;2023-11-21T07:19:50;57.64;39.32;75.09;;
77361;Laerm;66427;51.798;10.954;2023-11-21T07:22:16;58.93;41.77;72.45;;
77361;Laerm;66427;51.798;10.954;2023-11-21T07:24:49;58.26;40.72;72.74;;
77361;Laerm;66427;51.798;10.954;2023-11-21T07:27:17;54.17;39.97;69.34;;
77361;Laerm;66427;51.798;10.954;2023-11-21T07:29:43;55.89;40.67;70.67;;
77361;Laerm;66427;51.798;10.954;2023-11-21T07:32:09;55.40;40.28;71.13;;
77361;Laerm;66427;51.798;10.954;2023-11-21T07:34:38;64.01;40.98;79.17;;
77361;Laerm;66427;51.798;10.954;2023-11-21T07:37:03;56.85;40.60;70.44;;
77361;Laerm;66427;51.798;10.954;2023-11-21T07:39:29;56.68;41.85;71.25;;
77361;Laerm;66427;51.798;10.954;2023-11-21T07:41:55;59.36;41.57;73.85;;
77361;Laerm;66427;51.798;10.954;2023-11-21T07:44:21;54.38;42.01;68.39;;
77361;Laerm;66427;51.798;10.954;2023-11-21T07:46:46;53.04;38.72;72.00;;
77361;Laerm;66427;51.798;10.954;2023-11-21T07:49:12;60.68;40.52;75.90;;
77361;Laerm;66427;51.798;10.954;2023-11-21T07:51:41;57.83;38.11;72.37;;
77361;Laerm;66427;51.798;10.954;2023-11-21T07:54:07;61.53;39.56;75.69;;
77361;Laerm;66427;51.798;10.954;2023-11-21T07:56:32;55.01;38.97;68.57;;
77361;Laerm;66427;51.798;10.954;2023-11-21T07:58:58;58.76;40.49;72.62;;
77361;Laerm;66427;51.798;10.954;2023-11-21T08:01:24;61.53;41.91;75.47;;
77361;Laerm;66427;51.798;10.954;2023-11-21T08:03:49;42.27;37.78;50.22;;
77361;Laerm;66427;51.798;10.954;2023-11-21T08:06:17;55.59;39.71;73.49;;
77361;Laerm;66427;51.798;10.954;2023-11-21T08:08:42;62.03;42.73;74.19;;
77361;Laerm;66427;51.798;10.954;2023-11-21T08:11:08;60.84;42.01;74.53;;
77361;Laerm;66427;51.798;10.954;2023-11-21T08:13:35;60.05;41.67;71.70;;
77361;Laerm;66427;51.798;10.954;2023-11-21T08:16:00;58.05;42.38;69.09;;
77361;Laerm;66427;51.798;10.954;2023-11-21T08:18:30;51.02;40.27;74.88;;
77361;Laerm;66427;51.798;10.954;2023-11-21T08:20:55;63.54;42.67;79.27;;
77361;Laerm;66427;51.798;10.954;2023-11-21T08:23:21;60.57;42.74;75.07;;
77361;Laerm;66427;51.798;10.954;2023-11-21T08:25:50;58.42;44.67;72.31;;
77361;Laerm;66427;51.798;10.954;2023-11-21T08:28:16;50.29;44.93;59.21;;
77361;Laerm;66427;51.798;10.954;2023-11-21T08:30:41;59.65;46.27;72.82;;
77361;Laerm;66427;51.798;10.954;2023-11-21T08:33:07;62.28;46.54;77.68;;
77361;Laerm;66427;51.798;10.954;2023-11-21T08:35:33;59.81;47.24;74.26;;
77361;Laerm;66427;51.798;10.954;2023-11-21T08:37:59;62.95;48.50;74.59;;
77361;Laerm;66427;51.798;10.954;2023-11-21T08:40:25;61.44;47.49;76.18;;
77361;Laerm;66427;51.798;10.954;2023-11-21T08:42:50;59.36;47.09;72.65;;
77361;Laerm;66427;51.798;10.954;2023-11-21T08:45:18;60.78;48.47;72.61;;
77361;Laerm;66427;51.798;10.954;2023-11-21T08:47:43;60.45;46.67;70.71;;
77361;Laerm;66427;51.798;10.954;2023-11-21T08:50:12;60.43;44.34;76.82;;
77361;Laerm;66427;51.798;10.954;2023-11-21T08:52:38;54.97;44.10;71.02;;
77361;Laerm;66427;51.798;10.954;2023-11-21T08:55:04;56.42;46.18;70.87;;
77361;Laerm;66427;51.798;10.954;2023-11-21T08:57:36;57.85;44.97;71.43;;
77361;Laerm;66427;51.798;10.954;2023-11-21T09:00:02;60.39;43.78;74.52;;
77361;Laerm;66427;51.798;10.954;2023-11-21T09:02:28;54.19;44.46;70.45;;
77361;Laerm;66427;51.798;10.954;2023-11-21T09:04:53;60.95;46.45;73.50;;
77361;Laerm;66427;51.798;10.954;2023-11-21T09:07:19;59.50;45.33;72.79;;
77361;Laerm;66427;51.798;10.954;2023-11-21T09:09:46;67.39;44.70;84.84;;
77361;Laerm;66427;51.798;10.954;2023-11-21T09:12:11;59.74;43.39;75.28;;
77361;Laerm;66427;51.798;10.954;2023-11-21T09:14:37;59.08;44.40;70.82;;
77361;Laerm;66427;51.798;10.954;2023-11-21T09:17:03;58.21;44.28;71.33;;
77361;Laerm;66427;51.798;10.954;2023-11-21T09:19:29;58.94;43.80;74.82;;
77361;Laerm;66427;51.798;10.954;2023-11-21T09:21:54;57.00;44.20;69.27;;
77361;Laerm;66427;51.798;10.954;2023-11-21T09:24:20;48.77;43.42;57.55;;
77361;Laerm;66427;51.798;10.954;2023-11-21T09:26:45;59.80;46.00;74.67;;
77361;Laerm;66427;51.798;10.954;2023-11-21T09:29:10;57.41;44.88;72.51;;
77361;Laerm;66427;51.798;10.954;2023-11-21T09:31:36;61.17;46.15;73.82;;
77361;Laerm;66427;51.798;10.954;2023-11-21T09:34:01;54.14;43.92;78.49;;
77361;Laerm;66427;51.798;10.954;2023-11-21T09:36:27;59.24;43.20;75.24;;
77361;Laerm;66427;51.798;10.954;2023-11-21T09:38:55;61.49;42.30;79.42;;
77361;Laerm;66427;51.798;10.954;2023-11-21T09:41:21;60.80;45.67;71.90;;
77361;Laerm;66427;51.798;10.954;2023-11-21T09:43:49;54.15;43.74;70.43;;
77361;Laerm;66427;51.798;10.954;2023-11-21T09:46:19;57.36;44.60;71.20;;
77361;Laerm;66427;51.798;10.954;2023-11-21T09:48:50;60.15;45.25;73.90;;
77361;Laerm;66427;51.798;10.954;2023-11-21T09:51:19;61.84;45.31;72.74;;
77361;Laerm;66427;51.798;10.954;2023-11-21T09:53:45;61.54;43.00;75.04;;
77361;Laerm;66427;51.798;10.954;2023-11-21T09:56:13;60.25;44.64;73.24;;
77361;Laerm;66427;51.798;10.954;2023-11-21T09:58:41;56.44;45.17;76.67;;
77361;Laerm;66427;51.798;10.954;2023-11-21T10:01:07;58.62;43.09;70.88;;
77361;Laerm;66427;51.798;10.954;2023-11-21T10:03:35;60.53;46.29;74.61;;
77361;Laerm;66427;51.798;10.954;2023-11-21T10:06:00;55.33;42.13;71.09;;
77361;Laerm;66427;51.798;10.954;2023-11-21T10:08:27;59.72;42.37;74.49;;
77361;Laerm;66427;51.798;10.954;2023-11-21T10:10:53;59.86;44.63;72.80;;
77361;Laerm;66427;51.798;10.954;2023-11-21T10:13:19;63.53;44.95;77.82;;
77361;Laerm;66427;51.798;10.954;2023-11-21T10:15:49;60.63;45.46;74.58;;
77361;Laerm;66427;51.798;10.954;2023-11-21T10:18:15;57.73;40.99;70.73;;
77361;Laerm;66427;51.798;10.954;2023-11-21T10:20:41;60.32;42.78;72.08;;
77361;Laerm;66427;51.798;10.954;2023-11-21T10:23:11;58.37;39.85;71.59;;
77361;Laerm;66427;51.798;10.954;2023-11-21T10:25:38;61.03;40.67;74.68;;
77361;Laerm;66427;51.798;10.954;2023-11-21T10:28:03;59.23;44.21;73.59;;
77361;Laerm;66427;51.798;10.954;2023-11-21T10:30:36;57.35;44.96;75.29;;
77361;Laerm;66427;51.798;10.954;2023-11-21T10:33:03;61.36;45.97;75.14;;
77361;Laerm;66427;51.798;10.954;2023-11-21T10:35:47;60.07;45.14;75.88;;
77361;Laerm;66427;51.798;10.954;2023-11-21T10:38:18;56.11;43.54;75.91;;
77361;Laerm;66427;51.798;10.954;2023-11-21T10:40:46;61.43;44.10;77.57;;
77361;Laerm;66427;51.798;10.954;2023-11-21T10:43:13;53.66;43.49;70.85;;
77361;Laerm;66427;51.798;10.954;2023-11-21T10:45:38;59.19;44.22;73.50;;
77361;Laerm;66427;51.798;10.954;2023-11-21T10:48:07;59.61;42.93;72.47;;
77361;Laerm;66427;51.798;10.954;2023-11-21T10:50:33;59.84;43.23;77.50;;
77361;Laerm;66427;51.798;10.954;2023-11-21T10:53:01;55.45;43.50;69.24;;
77361;Laerm;66427;51.798;10.954;2023-11-21T10:55:27;56.80;44.39;69.30;;
77361;Laerm;66427;51.798;10.954;2023-11-21T10:57:53;51.69;43.95;68.13;;
77361;Laerm;66427;51.798;10.954;2023-11-21T11:00:19;56.72;42.62;71.90;;
77361;Laerm;66427;51.798;10.954;2023-11-21T11:02:50;58.52;45.20;70.09;;
77361;Laerm;66427;51.798;10.954;2023-11-21T11:05:16;57.82;44.60;68.59;;
77361;Laerm;66427;51.798;10.954;2023-11-21T11:07:44;53.38;42.94;67.69;;
77361;Laerm;66427;51.798;10.954;2023-11-21T11:10:10;48.28;43.42;65.57;;
77361;Laerm;66427;51.798;10.954;2023-11-21T11:12:42;63.17;45.89;80.67;;
77361;Laerm;66427;51.798;10.954;2023-11-21T11:15:11;59.12;42.24;72.65;;
77361;Laerm;66427;51.798;10.954;2023-11-21T11:17:37;54.48;41.16;64.67;;
77361;Laerm;66427;51.798;10.954;2023-11-21T11:20:04;53.25;41.84;68.85;;
77361;Laerm;66427;51.798;10.954;2023-11-21T11:22:40;54.41;43.83;67.56;;
77361;Laerm;66427;51.798;10.954;2023-11-21T11:27:54;64.11;44.94;80.03;;
77361;Laerm;66427;51.798;10.954;2023-11-21T11:32:54;54.93;44.98;65.12;;
77361;Laerm;66427;51.798;10.954;2023-11-21T11:38:01;56.09;45.18;67.31;;
77361;Laerm;66427;51.798;10.954;2023-11-21T11:40:38;56.42;45.16;71.01;;
77361;Laerm;66427;51.798;10.954;2023-11-21T11:43:03;58.09;44.28;69.51;;
77361;Laerm;66427;51.798;10.954;2023-11-21T11:45:33;59.02;44.06;72.15;;
77361;Laerm;66427;51.798;10.954;2023-11-21T11:47:59;53.45;43.94;69.25;;
77361;Laerm;66427;51.798;10.954;2023-11-21T11:50:25;51.98;42.11;65.29;;
77361;Laerm;66427;51.798;10.954;2023-11-21T11:52:55;59.29;45.02;70.48;;
77361;Laerm;66427;51.798;10.954;2023-11-21T11:55:36;59.10;46.53;71.20;;
77361;Laerm;66427;51.798;10.954;2023-11-21T11:58:04;55.61;44.10;67.29;;
77361;Laerm;66427;51.798;10.954;2023-11-21T12:02:58;57.59;44.24;69.07;;
77361;Laerm;66427;51.798;10.954;2023-11-21T12:05:26;54.53;41.81;66.97;;
77361;Laerm;66427;51.798;10.954;2023-11-21T12:08:01;54.12;41.48;68.46;;
77361;Laerm;66427;51.798;10.954;2023-11-21T12:10:28;52.83;40.60;69.71;;
77361;Laerm;66427;51.798;10.954;2023-11-21T12:12:55;65.26;41.42;86.56;;
77361;Laerm;66427;51.798;10.954;2023-11-21T12:15:21;54.29;41.49;66.49;;
77361;Laerm;66427;51.798;10.954;2023-11-21T12:17:47;58.60;41.57;71.78;;
77361;Laerm;66427;51.798;10.954;2023-11-21T12:20:14;56.63;42.13;68.28;;
77361;Laerm;66427;51.798;10.954;2023-11-21T12:22:47;52.32;43.03;66.69;;
77361;Laerm;66427;51.798;10.954;2023-11-21T12:25:13;56.67;45.47;68.40;;
77361;Laerm;66427;51.798;10.954;2023-11-21T12:27:44;55.81;42.49;70.85;;
77361;Laerm;66427;51.798;10.954;2023-11-21T12:30:11;62.99;43.22;81.28;;
77361;Laerm;66427;51.798;10.954;2023-11-21T12:32:41;60.58;46.34;78.06;;
77361;Laerm;66427;51.798;10.954;2023-11-21T12:35:10;60.95;43.44;76.50;;
77361;Laerm;66427;51.798;10.954;2023-11-21T12:37:37;55.95;43.37;71.12;;
77361;Laerm;66427;51.798;10.954;2023-11-21T12:40:04;55.09;43.94;67.69;;
77361;Laerm;66427;51.798;10.954;2023-11-21T12:42:29;51.71;44.31;65.95;;
77361;Laerm;66427;51.798;10.954;2023-11-21T12:47:40;58.52;44.94;71.13;;
77361;Laerm;66427;51.798;10.954;2023-11-21T12:50:06;48.65;43.74;67.29;;
77361;Laerm;66427;51.798;10.954;2023-11-21T12:52:32;60.05;44.94;75.73;;
77361;Laerm;66427;51.798;10.954;2023-11-21T12:54:58;57.10;46.39;70.39;;
77361;Laerm;66427;51.798;10.954;2023-11-21T12:57:26;58.59;45.08;69.83;;
77361;Laerm;66427;51.798;10.954;2023-11-21T12:59:58;61.39;44.21;74.00;;
77361;Laerm;66427;51.798;10.954;2023-11-21T13:02:26;54.20;45.57;70.66;;
77361;Laerm;66427;51.798;10.954;2023-11-21T13:04:51;49.15;43.66;69.34;;
77361;Laerm;66427;51.798;10.954;2023-11-21T13:07:18;56.12;44.54;70.26;;
77361;Laerm;66427;51.798;10.954;2023-11-21T13:09:45;46.74;41.51;57.88;;
77361;Laerm;66427;51.798;10.954;2023-11-21T13:12:11;55.33;41.33;70.47;;
77361;Laerm;66427;51.798;10.954;2023-11-21T13:14:39;47.71;41.40;58.50;;
77361;Laerm;66427;51.798;10.954;2023-11-21T13:17:05;50.96;43.18;65.12;;
77361;Laerm;66427;51.798;10.954;2023-11-21T13:19:30;65.57;44.07;80.39;;
77361;Laerm;66427;51.798;10.954;2023-11-21T13:21:56;61.45;43.68;77.53;;
77361;Laerm;66427;51.798;10.954;2023-11-21T13:24:21;55.40;44.02;66.89;;
77361;Laerm;66427;51.798;10.954;2023-11-21T13:26:46;58.33;45.83;70.88;;
77361;Laerm;66427;51.798;10.954;2023-11-21T13:29:13;58.83;44.44;73.29;;
77361;Laerm;66427;51.798;10.954;2023-11-21T13:31:38;55.09;43.56;70.10;;
77361;Laerm;66427;51.798;10.954;2023-11-21T13:34:04;58.93;43.51;72.33;;
77361;Laerm;66427;51.798;10.954;2023-11-21T13:36:30;58.64;45.98;70.61;;
77361;Laerm;66427;51.798;10.954;2023-11-21T13:38:58;56.16;45.41;66.71;;
77361;Laerm;66427;51.798;10.954;2023-11-21T13:41:42;59.24;44.33;71.95;;